createdAt,value
2018-07-26T00:00:30.679Z,19.71
2018-07-26T00:02:59.349Z,19.68
2018-07-26T00:05:28.059Z,19.63
2018-07-26T00:07:56.733Z,19.59
2018-07-26T00:10:25.408Z,19.56
2018-07-26T00:12:54.431Z,19.57
2018-07-26T00:15:23.118Z,19.56
2018-07-26T00:17:51.756Z,19.41
2018-07-26T00:20:20.446Z,19.25
2018-07-26T00:22:49.124Z,19.08
2018-07-26T00:25:17.790Z,19.01
2018-07-26T00:27:46.588Z,18.96
2018-07-26T00:30:15.314Z,18.91
2018-07-26T00:32:43.953Z,18.85
2018-07-26T00:35:12.645Z,18.79
2018-07-26T00:37:41.292Z,18.78
2018-07-26T00:40:09.984Z,18.74
2018-07-26T00:42:38.640Z,18.72
2018-07-26T00:45:07.543Z,18.69
2018-07-26T00:47:36.181Z,18.68
2018-07-26T00:50:05.032Z,18.70
2018-07-26T00:52:33.705Z,18.68
2018-07-26T00:55:02.397Z,18.67
2018-07-26T00:57:31.043Z,18.65
2018-07-26T00:59:59.710Z,18.60
2018-07-26T01:02:28.370Z,18.47
2018-07-26T01:04:57.041Z,18.40
2018-07-26T01:07:25.735Z,18.35
2018-07-26T01:09:54.435Z,18.33
2018-07-26T01:12:23.084Z,18.33
2018-07-26T01:14:51.755Z,18.32
2018-07-26T01:17:20.434Z,18.31
2018-07-26T01:19:49.196Z,18.31
2018-07-26T01:22:17.865Z,18.33
2018-07-26T01:24:46.554Z,18.36
2018-07-26T01:27:15.212Z,18.33
2018-07-26T01:29:43.887Z,18.20
2018-07-26T01:32:12.552Z,18.13
2018-07-26T01:34:41.229Z,18.09
2018-07-26T01:37:09.870Z,18.06
2018-07-26T01:39:38.560Z,17.98
2018-07-26T01:42:07.205Z,17.91
2018-07-26T01:44:35.860Z,17.86
2018-07-26T01:47:04.549Z,17.84
2018-07-26T01:49:33.199Z,17.83
2018-07-26T01:52:01.891Z,17.66
2018-07-26T01:54:30.540Z,17.60
2018-07-26T01:56:59.226Z,17.62
2018-07-26T01:59:27.860Z,17.66
2018-07-26T02:01:56.535Z,17.68
2018-07-26T02:04:25.181Z,17.74
2018-07-26T02:06:53.957Z,17.82
2018-07-26T02:09:22.635Z,17.88
2018-07-26T02:11:51.315Z,17.93
2018-07-26T02:14:25.135Z,18.00
2018-07-26T02:16:53.874Z,18.13
2018-07-26T02:19:22.531Z,18.24
2018-07-26T02:21:51.216Z,18.21
2018-07-26T02:24:19.882Z,18.17
2018-07-26T02:26:48.540Z,18.20
2018-07-26T02:29:17.182Z,18.17
2018-07-26T02:31:45.901Z,18.12
2018-07-26T02:34:14.541Z,18.02
2018-07-26T02:36:43.289Z,17.93
2018-07-26T02:39:11.964Z,17.81
2018-07-26T02:41:40.657Z,17.69
2018-07-26T02:44:09.310Z,17.49
2018-07-26T02:46:38.020Z,17.33
2018-07-26T02:49:06.672Z,17.18
2018-07-26T02:51:35.347Z,17.11
2018-07-26T02:54:04.055Z,17.14
2018-07-26T02:56:32.724Z,17.22
2018-07-26T02:59:01.353Z,17.26
2018-07-26T03:01:30.013Z,17.27
2018-07-26T03:03:58.670Z,17.21
2018-07-26T03:06:27.420Z,17.10
2018-07-26T03:08:56.068Z,17.06
2018-07-26T03:11:24.748Z,17.04
2018-07-26T03:13:53.388Z,17.04
2018-07-26T03:16:22.212Z,17.04
2018-07-26T03:18:50.891Z,17.01
2018-07-26T03:21:19.570Z,16.93
2018-07-26T03:23:48.224Z,16.92
2018-07-26T03:26:16.881Z,16.96
2018-07-26T03:28:45.535Z,16.98
2018-07-26T03:31:14.205Z,16.93
2018-07-26T03:33:42.862Z,16.92
2018-07-26T03:36:11.536Z,16.87
2018-07-26T03:38:40.187Z,16.83
2018-07-26T03:41:08.873Z,16.78
2018-07-26T03:43:37.533Z,16.75
2018-07-26T03:46:06.340Z,16.71
2018-07-26T03:48:34.987Z,16.73
2018-07-26T03:51:03.768Z,16.73
2018-07-26T03:53:32.413Z,16.63
2018-07-26T03:56:01.067Z,16.56
2018-07-26T03:58:29.740Z,16.61
2018-07-26T04:00:58.385Z,16.76
2018-07-26T04:03:27.052Z,16.87
2018-07-26T04:05:55.731Z,16.87
2018-07-26T04:08:24.409Z,16.87
2018-07-26T04:10:53.091Z,16.88
2018-07-26T04:13:21.761Z,16.95
2018-07-26T04:15:50.422Z,16.99
2018-07-26T04:18:19.104Z,17.07
2018-07-26T04:20:47.747Z,17.13
2018-07-26T04:23:16.470Z,17.18
2018-07-26T04:25:45.145Z,17.24
2018-07-26T04:28:13.829Z,17.33
2018-07-26T04:30:42.495Z,17.45
2018-07-26T04:33:11.148Z,17.57
2018-07-26T04:35:39.796Z,17.70
2018-07-26T04:38:08.468Z,17.79
2018-07-26T04:40:37.138Z,17.88
2018-07-26T04:43:05.841Z,17.98
2018-07-26T04:45:34.514Z,18.09
2018-07-26T04:48:03.269Z,18.19
2018-07-26T04:50:31.923Z,18.28
2018-07-26T04:53:00.644Z,18.34
2018-07-26T04:55:29.305Z,18.44
2018-07-26T04:57:57.984Z,18.55
2018-07-26T05:00:26.651Z,18.70
2018-07-26T05:02:55.340Z,18.83
2018-07-26T05:05:24.233Z,18.99
2018-07-26T05:07:53.082Z,19.13
2018-07-26T05:10:21.795Z,19.26
2018-07-26T05:12:50.839Z,19.42
2018-07-26T05:15:19.547Z,19.65
2018-07-26T05:17:48.203Z,20.07
2018-07-26T05:20:16.868Z,20.91
2018-07-26T05:22:45.545Z,21.67
2018-07-26T05:25:14.206Z,22.01
2018-07-26T05:27:42.970Z,22.38
2018-07-26T05:30:11.632Z,22.92
2018-07-26T05:32:40.307Z,23.28
2018-07-26T05:35:08.984Z,23.57
2018-07-26T05:37:37.681Z,23.88
2018-07-26T05:40:06.477Z,25.13
2018-07-26T05:42:35.196Z,27.01
2018-07-26T05:45:03.894Z,28.54
2018-07-26T05:47:32.602Z,29.56
2018-07-26T05:50:01.250Z,30.07
2018-07-26T05:52:29.932Z,30.22
2018-07-26T05:54:58.589Z,29.70
2018-07-26T05:57:27.269Z,29.02
2018-07-26T05:59:55.967Z,28.04
2018-07-26T06:02:24.621Z,27.14
2018-07-26T06:04:53.295Z,26.55
2018-07-26T06:07:22.028Z,26.17
2018-07-26T06:09:50.668Z,26.02
2018-07-26T06:12:19.335Z,26.08
2018-07-26T06:14:48.025Z,26.17
2018-07-26T06:17:16.729Z,25.97
2018-07-26T06:19:45.375Z,25.84
2018-07-26T06:22:14.003Z,25.77
2018-07-26T06:24:42.694Z,25.60
2018-07-26T06:27:11.472Z,25.39
2018-07-26T06:29:40.178Z,25.23
2018-07-26T06:32:08.846Z,25.10
2018-07-26T06:34:37.516Z,25.00
2018-07-26T06:37:06.426Z,25.01
2018-07-26T06:39:35.271Z,25.05
2018-07-26T06:42:03.965Z,25.11
2018-07-26T06:44:32.617Z,25.19
2018-07-26T06:47:01.286Z,25.24
2018-07-26T06:49:29.960Z,25.32
2018-07-26T06:51:58.605Z,25.40
2018-07-26T06:54:27.288Z,25.49
2018-07-26T06:56:55.927Z,25.53
2018-07-26T06:59:24.610Z,25.67
2018-07-26T07:01:54.449Z,25.72
2018-07-26T07:04:23.406Z,25.84
2018-07-26T07:06:52.103Z,26.01
2018-07-26T07:09:20.752Z,26.17
2018-07-26T07:11:49.490Z,26.32
2018-07-26T07:14:18.166Z,26.47
2018-07-26T07:16:46.836Z,26.62
2018-07-26T07:19:15.488Z,26.80
2018-07-26T07:21:44.128Z,26.99
2018-07-26T07:24:16.922Z,27.21
2018-07-26T07:26:45.550Z,27.47
2018-07-26T07:29:14.209Z,27.77
2018-07-26T07:31:42.837Z,27.97
2018-07-26T07:34:11.486Z,28.16
2018-07-26T07:36:40.129Z,28.36
2018-07-26T07:39:11.564Z,28.57
2018-07-26T07:41:40.296Z,28.76
2018-07-26T07:44:09.492Z,28.76
2018-07-26T07:46:38.612Z,28.90
2018-07-26T07:49:07.499Z,29.11
2018-07-26T07:52:02.822Z,29.27
2018-07-26T07:54:31.487Z,29.37
2018-07-26T07:57:00.160Z,29.52
2018-07-26T07:59:28.886Z,29.65
2018-07-26T08:01:57.508Z,29.81
2018-07-26T08:04:26.160Z,29.94
2018-07-26T08:06:54.823Z,30.10
2018-07-26T08:09:23.479Z,30.21
2018-07-26T08:11:52.136Z,30.35
2018-07-26T08:14:20.790Z,30.34
2018-07-26T08:16:49.449Z,30.44
2018-07-26T08:19:18.133Z,30.50
2018-07-26T08:21:46.770Z,30.70
2018-07-26T08:24:15.465Z,30.92
2018-07-26T08:26:44.100Z,30.91
2018-07-26T08:29:12.778Z,30.97
2018-07-26T08:31:41.419Z,31.12
2018-07-26T08:34:10.101Z,31.27
2018-07-26T08:36:38.753Z,31.37
2018-07-26T08:39:09.857Z,31.43
2018-07-26T08:41:38.484Z,31.61
2018-07-26T08:44:07.135Z,31.79
2018-07-26T08:46:35.831Z,31.89
2018-07-26T08:49:04.517Z,32.02
2018-07-26T08:51:33.277Z,32.07
2018-07-26T08:54:01.911Z,32.06
2018-07-26T08:56:30.573Z,32.21
2018-07-26T08:58:59.231Z,32.33
2018-07-26T09:01:27.914Z,32.35
2018-07-26T09:03:56.550Z,32.05
2018-07-26T09:06:25.247Z,32.07
2018-07-26T09:08:53.883Z,32.00
2018-07-26T09:11:22.559Z,31.98
2018-07-26T09:13:51.260Z,32.03
2018-07-26T09:16:20.113Z,32.33
2018-07-26T09:18:48.767Z,32.50
2018-07-26T09:21:17.445Z,32.57
2018-07-26T09:23:46.129Z,32.73
2018-07-26T09:26:14.892Z,32.87
2018-07-26T09:28:43.537Z,32.74
2018-07-26T09:31:12.210Z,32.76
2018-07-26T09:33:40.899Z,32.75
2018-07-26T09:36:10.204Z,32.90
2018-07-26T09:38:38.868Z,33.00
2018-07-26T09:41:07.612Z,32.97
2018-07-26T09:43:36.269Z,32.90
2018-07-26T09:46:04.984Z,32.69
2018-07-26T09:48:33.651Z,32.93
2018-07-26T09:51:02.323Z,33.09
2018-07-26T09:53:31.053Z,33.21
2018-07-26T09:55:59.743Z,33.43
2018-07-26T09:58:28.397Z,33.39
2018-07-26T10:01:02.234Z,33.22
2018-07-26T10:03:30.881Z,33.28
2018-07-26T10:05:59.568Z,33.53
2018-07-26T10:08:28.228Z,33.60
2018-07-26T10:10:56.890Z,33.67
2018-07-26T10:13:25.534Z,33.63
2018-07-26T10:15:54.259Z,33.62
2018-07-26T10:18:22.878Z,33.62
2018-07-26T10:20:51.551Z,33.59
2018-07-26T10:23:20.221Z,33.49
2018-07-26T10:25:48.883Z,33.31
2018-07-26T10:28:17.530Z,33.43
2018-07-26T10:30:46.201Z,33.50
2018-07-26T10:33:14.842Z,33.51
2018-07-26T10:35:43.535Z,33.72
2018-07-26T10:38:12.175Z,33.73
2018-07-26T10:40:40.828Z,33.65
2018-07-26T10:43:09.474Z,33.90
2018-07-26T10:45:38.151Z,33.85
2018-07-26T10:48:07.031Z,33.87
2018-07-26T10:50:35.716Z,33.69
2018-07-26T10:53:04.385Z,33.78
2018-07-26T10:55:33.034Z,34.02
2018-07-26T10:58:01.707Z,33.83
2018-07-26T11:00:30.360Z,33.83
2018-07-26T11:02:59.036Z,33.89
2018-07-26T11:05:27.709Z,33.86
2018-07-26T11:07:56.373Z,34.03
2018-07-26T11:10:25.012Z,34.18
2018-07-26T11:12:53.676Z,34.30
2018-07-26T11:15:34.337Z,34.24
2018-07-26T11:18:03.269Z,34.26
2018-07-26T11:20:31.896Z,34.52
2018-07-26T11:23:00.739Z,34.28
2018-07-26T11:25:29.449Z,33.71
2018-07-26T11:27:58.127Z,33.21
2018-07-26T11:30:26.765Z,33.37
2018-07-26T11:32:55.461Z,33.29
2018-07-26T11:35:24.130Z,33.04
2018-07-26T11:37:52.800Z,33.52
2018-07-26T11:40:21.493Z,34.08
2018-07-26T11:42:50.211Z,34.61
2018-07-26T11:45:18.855Z,34.87
2018-07-26T11:47:47.508Z,34.56
2018-07-26T11:50:16.160Z,34.72
2018-07-26T11:52:44.822Z,34.62
2018-07-26T11:55:13.484Z,34.39
2018-07-26T11:57:42.159Z,34.02
2018-07-26T12:00:10.829Z,33.58
2018-07-26T12:02:39.500Z,33.25
2018-07-26T12:05:08.157Z,33.15
2018-07-26T12:07:36.848Z,32.92
2018-07-26T12:10:05.827Z,32.55
2018-07-26T12:12:35.341Z,32.23
2018-07-26T12:15:04.119Z,31.99
2018-07-26T12:17:32.789Z,31.79
2018-07-26T12:20:01.429Z,32.00
2018-07-26T12:22:30.103Z,32.77
2018-07-26T12:24:58.740Z,33.22
2018-07-26T12:27:27.423Z,33.06
2018-07-26T12:29:56.091Z,32.81
2018-07-26T12:32:24.783Z,32.95
2018-07-26T12:34:53.446Z,33.48
2018-07-26T12:37:22.108Z,33.73
2018-07-26T12:39:50.737Z,34.24
2018-07-26T12:42:21.265Z,34.67
2018-07-26T12:44:49.985Z,34.71
2018-07-26T12:47:18.665Z,34.55
2018-07-26T12:49:47.358Z,34.07
2018-07-26T12:52:18.614Z,33.76
2018-07-26T12:54:47.308Z,33.66
2018-07-26T12:57:16.143Z,34.06
2018-07-26T12:59:44.859Z,34.47
2018-07-26T13:02:13.660Z,34.32
2018-07-26T13:04:42.308Z,33.43
2018-07-26T13:07:11.106Z,33.03
2018-07-26T13:09:39.760Z,32.85
2018-07-26T13:12:08.504Z,32.85
2018-07-26T13:14:37.170Z,33.36
2018-07-26T13:17:05.827Z,34.07
2018-07-26T13:19:34.495Z,34.65
2018-07-26T13:22:03.142Z,35.00
2018-07-26T13:24:31.815Z,35.04
2018-07-26T13:27:00.508Z,35.08
2018-07-26T13:29:29.188Z,34.51
2018-07-26T13:31:57.828Z,33.95
2018-07-26T13:34:26.514Z,33.74
2018-07-26T13:36:55.216Z,34.22
2018-07-26T13:39:23.877Z,34.33
2018-07-26T13:41:52.544Z,34.54
2018-07-26T13:44:21.199Z,35.13
2018-07-26T13:46:49.860Z,35.42
2018-07-26T13:49:18.526Z,35.90
2018-07-26T13:51:47.155Z,35.89
2018-07-26T13:54:15.796Z,35.88
2018-07-26T13:56:44.430Z,35.88
2018-07-26T13:59:13.104Z,35.55
2018-07-26T14:01:41.766Z,35.10
2018-07-26T14:04:10.423Z,34.62
2018-07-26T14:06:39.078Z,34.38
2018-07-26T14:09:09.968Z,33.98
2018-07-26T14:11:38.596Z,33.54
2018-07-26T14:14:07.664Z,33.06
2018-07-26T14:16:36.318Z,32.70
2018-07-26T14:19:05.335Z,32.52
2018-07-26T14:21:33.985Z,32.58
2018-07-26T14:24:03.605Z,33.05
2018-07-26T14:26:32.660Z,33.55
2018-07-26T14:29:01.336Z,33.95
2018-07-26T14:31:29.998Z,34.28
2018-07-26T14:33:58.661Z,34.77
2018-07-26T14:36:27.352Z,35.11
2018-07-26T14:38:57.365Z,35.38
2018-07-26T14:41:26.041Z,35.67
2018-07-26T14:43:54.721Z,35.60
2018-07-26T14:46:23.399Z,35.44
2018-07-26T14:48:52.089Z,35.13
2018-07-26T14:51:20.743Z,35.36
2018-07-26T14:53:49.440Z,35.57
2018-07-26T14:56:18.073Z,35.62
2018-07-26T14:58:46.761Z,35.78
2018-07-26T15:01:15.421Z,35.81
2018-07-26T15:03:44.084Z,35.86
2018-07-26T15:06:12.829Z,35.85
2018-07-26T15:08:41.505Z,35.90
2018-07-26T15:11:10.180Z,36.15
2018-07-26T15:13:38.888Z,36.29
2018-07-26T15:16:07.519Z,35.78
2018-07-26T15:18:36.210Z,35.20
2018-07-26T15:21:04.892Z,34.63
2018-07-26T15:23:33.660Z,34.03
2018-07-26T15:26:02.320Z,33.59
2018-07-26T15:28:31.000Z,33.89
2018-07-26T15:30:59.664Z,34.31
2018-07-26T15:33:28.329Z,34.21
2018-07-26T15:35:56.994Z,33.94
2018-07-26T15:38:25.624Z,33.94
2018-07-26T15:40:54.351Z,33.89
2018-07-26T15:43:22.999Z,33.42
2018-07-26T15:45:51.685Z,33.52
2018-07-26T15:48:20.336Z,33.39
2018-07-26T15:50:49.021Z,33.29
2018-07-26T15:53:17.671Z,32.80
2018-07-26T15:55:46.358Z,32.46
2018-07-26T15:58:15.018Z,32.32
2018-07-26T16:00:43.698Z,32.12
2018-07-26T16:03:12.349Z,32.05
2018-07-26T16:05:41.040Z,31.87
2018-07-26T16:08:09.682Z,31.80
2018-07-26T16:10:38.355Z,31.66
2018-07-26T16:13:07.047Z,31.67
2018-07-26T16:15:35.728Z,31.70
2018-07-26T16:18:04.453Z,31.70
2018-07-26T16:20:33.114Z,31.70
2018-07-26T16:23:01.820Z,31.66
2018-07-26T16:25:30.479Z,31.88
2018-07-26T16:27:59.139Z,32.09
2018-07-26T16:30:27.804Z,32.09
2018-07-26T16:32:56.499Z,32.04
2018-07-26T16:35:25.179Z,32.05
2018-07-26T16:37:53.849Z,32.06
2018-07-26T16:40:22.541Z,32.00
2018-07-26T16:42:51.209Z,31.97
2018-07-26T16:45:20.007Z,32.06
2018-07-26T16:47:48.661Z,32.22
2018-07-26T16:50:17.355Z,32.41
2018-07-26T16:52:46.229Z,32.52
2018-07-26T16:55:14.927Z,32.53
2018-07-26T16:57:43.548Z,32.53
2018-07-26T17:00:12.250Z,32.45
2018-07-26T17:02:40.941Z,32.43
2018-07-26T17:05:10.129Z,32.22
2018-07-26T17:07:38.859Z,32.09
2018-07-26T17:10:08.382Z,31.92
2018-07-26T17:12:37.213Z,31.89
2018-07-26T17:15:07.237Z,31.78
2018-07-26T17:17:35.894Z,31.77
2018-07-26T17:20:05.367Z,31.62
2018-07-26T17:22:34.047Z,31.57
2018-07-26T17:25:02.738Z,31.52
2018-07-26T17:27:31.548Z,31.52
2018-07-26T17:30:00.220Z,31.40
2018-07-26T17:32:28.896Z,31.31
2018-07-26T17:34:57.584Z,31.27
2018-07-26T17:37:26.238Z,31.22
2018-07-26T17:39:54.945Z,31.18
2018-07-26T17:42:23.634Z,31.13
2018-07-26T17:44:52.331Z,31.07
2018-07-26T17:47:21.030Z,30.98
2018-07-26T17:49:49.674Z,30.95
2018-07-26T17:52:18.339Z,31.04
2018-07-26T17:54:46.979Z,31.48
2018-07-26T17:57:15.648Z,32.27
2018-07-26T17:59:44.622Z,32.90
2018-07-26T18:02:13.274Z,32.98
2018-07-26T18:04:42.083Z,32.82
2018-07-26T18:07:10.792Z,32.88
2018-07-26T18:09:39.419Z,32.82
2018-07-26T18:12:08.113Z,32.75
2018-07-26T18:14:36.839Z,32.54
2018-07-26T18:17:05.647Z,32.56
2018-07-26T18:19:34.280Z,32.27
2018-07-26T18:22:03.042Z,32.32
2018-07-26T18:24:31.705Z,32.21
2018-07-26T18:27:00.368Z,32.04
2018-07-26T18:29:29.015Z,31.58
2018-07-26T18:31:57.798Z,31.56
2018-07-26T18:34:26.439Z,31.40
2018-07-26T18:36:55.103Z,31.26
2018-07-26T18:39:23.740Z,31.02
2018-07-26T18:41:52.436Z,30.71
2018-07-26T18:44:21.078Z,30.70
2018-07-26T18:46:49.738Z,30.37
2018-07-26T18:49:18.406Z,30.10
2018-07-26T18:51:47.092Z,29.75
2018-07-26T18:54:15.726Z,29.44
2018-07-26T18:56:44.425Z,29.16
2018-07-26T18:59:13.054Z,28.80
2018-07-26T19:01:41.732Z,28.55
2018-07-26T19:04:10.366Z,28.35
2018-07-26T19:06:39.052Z,28.27
2018-07-26T19:09:09.789Z,28.20
2018-07-26T19:11:38.466Z,28.08
2018-07-26T19:14:07.129Z,27.97
2018-07-26T19:16:35.801Z,27.87
2018-07-26T19:19:04.561Z,27.67
2018-07-26T19:21:33.240Z,27.56
2018-07-26T19:24:01.894Z,27.44
2018-07-26T19:26:30.546Z,27.31
2018-07-26T19:28:59.176Z,27.19
2018-07-26T19:31:27.876Z,27.11
2018-07-26T19:33:56.520Z,26.95
2018-07-26T19:36:25.192Z,26.83
2018-07-26T19:38:53.817Z,26.73
2018-07-26T19:41:22.472Z,26.62
2018-07-26T19:43:51.144Z,26.47
2018-07-26T19:46:19.783Z,26.38
2018-07-26T19:48:48.443Z,26.28
2018-07-26T19:51:17.086Z,26.20
2018-07-26T19:53:45.769Z,26.07
2018-07-26T19:56:14.447Z,25.99
2018-07-26T19:58:43.158Z,25.89
2018-07-26T20:01:11.804Z,25.77
2018-07-26T20:03:40.471Z,25.67
2018-07-26T20:06:09.137Z,25.60
2018-07-26T20:08:37.876Z,25.54
2018-07-26T20:11:06.753Z,25.47
2018-07-26T20:13:35.472Z,25.40
2018-07-26T20:16:04.135Z,25.26
2018-07-26T20:18:32.780Z,25.32
2018-07-26T20:21:01.429Z,25.38
2018-07-26T20:23:36.821Z,25.35
2018-07-26T20:26:05.562Z,25.35
2018-07-26T20:28:34.240Z,25.29
2018-07-26T20:31:02.876Z,25.20
2018-07-26T20:33:31.594Z,25.05
2018-07-26T20:36:00.233Z,24.86
2018-07-26T20:38:28.904Z,24.72
2018-07-26T20:40:57.572Z,24.63
2018-07-26T20:43:26.288Z,24.59
2018-07-26T20:45:54.956Z,24.51
2018-07-26T20:48:23.689Z,24.41
2018-07-26T20:50:52.297Z,24.39
2018-07-26T20:53:20.962Z,24.32
2018-07-26T20:55:49.606Z,24.30
2018-07-26T20:58:18.269Z,24.35
2018-07-26T21:00:46.936Z,24.34
2018-07-26T21:03:15.613Z,24.35
2018-07-26T21:05:44.309Z,24.30
2018-07-26T21:08:13.009Z,24.28
2018-07-26T21:10:41.669Z,24.28
2018-07-26T21:13:10.563Z,24.22
2018-07-26T21:15:39.204Z,24.12
2018-07-26T21:18:07.989Z,24.10
2018-07-26T21:20:37.145Z,24.03
2018-07-26T21:23:05.878Z,23.99
2018-07-26T21:25:34.536Z,23.94
2018-07-26T21:28:03.197Z,23.87
2018-07-26T21:30:32.015Z,23.74
2018-07-26T21:33:00.686Z,23.61
2018-07-26T21:35:29.333Z,23.40
2018-07-26T21:37:58.000Z,23.28
2018-07-26T21:40:26.697Z,23.15
2018-07-26T21:42:55.357Z,23.08
2018-07-26T21:45:23.987Z,22.97
2018-07-26T21:47:52.663Z,22.76
2018-07-26T21:50:21.300Z,22.53
2018-07-26T21:52:50.316Z,22.20
2018-07-26T21:55:18.979Z,22.05
2018-07-26T21:57:47.647Z,21.95
2018-07-26T22:00:16.315Z,21.89
2018-07-26T22:02:44.956Z,21.94
2018-07-26T22:05:13.664Z,21.96
2018-07-26T22:07:42.335Z,21.96
2018-07-26T22:10:11.005Z,22.00
2018-07-26T22:12:39.664Z,22.04
2018-07-26T22:15:08.421Z,21.99
2018-07-26T22:17:37.090Z,21.91
2018-07-26T22:20:06.086Z,21.72
2018-07-26T22:22:34.744Z,21.62
2018-07-26T22:25:03.420Z,21.45
2018-07-26T22:27:32.088Z,21.33
2018-07-26T22:30:00.773Z,21.29
2018-07-26T22:32:29.406Z,21.24
2018-07-26T22:34:57.955Z,21.18
2018-07-26T22:37:26.459Z,21.19
2018-07-26T22:39:55.011Z,21.22
2018-07-26T22:42:23.510Z,21.19
2018-07-26T22:44:52.036Z,21.08
2018-07-26T22:47:20.557Z,21.00
2018-07-26T22:49:49.112Z,20.94
2018-07-26T22:52:17.694Z,20.88
2018-07-26T22:54:46.248Z,20.76
2018-07-26T22:57:14.795Z,20.76
2018-07-26T22:59:43.339Z,20.79
2018-07-26T23:02:11.867Z,20.87
2018-07-26T23:04:40.411Z,21.00
2018-07-26T23:07:09.038Z,21.11
2018-07-26T23:09:37.607Z,21.17
2018-07-26T23:12:06.367Z,21.10
2018-07-26T23:14:34.904Z,20.89
2018-07-26T23:17:03.444Z,20.64
2018-07-26T23:19:32.076Z,20.57
2018-07-26T23:22:00.638Z,20.58
2018-07-26T23:24:29.227Z,20.65
2018-07-26T23:26:57.759Z,20.73
2018-07-26T23:29:26.293Z,20.83
2018-07-26T23:31:54.824Z,20.83
2018-07-26T23:34:23.358Z,20.83
2018-07-26T23:36:51.878Z,20.86
2018-07-26T23:39:20.426Z,20.91
2018-07-26T23:41:48.946Z,20.99
2018-07-26T23:44:17.491Z,21.05
2018-07-26T23:46:46.013Z,21.07
2018-07-26T23:49:14.537Z,21.07
2018-07-26T23:51:43.051Z,21.06
2018-07-26T23:54:11.604Z,21.08
2018-07-26T23:56:40.122Z,21.07
2018-07-26T23:59:08.672Z,21.06
